createdAt,value
2023-07-08T15:06:20.205Z,101.25
2023-07-08T15:07:20.151Z,101.25
2023-07-08T15:08:20.121Z,101.25
2023-07-08T15:09:20.077Z,101.25
2023-07-08T15:10:20.058Z,84.38
2023-07-08T15:11:20.017Z,95.63
2023-07-08T15:12:19.972Z,73.13
2023-07-08T15:13:19.950Z,67.50
2023-07-08T15:15:19.872Z,67.50
2023-07-08T15:16:19.837Z,67.50
2023-07-08T15:21:34.937Z,84.38
2023-07-08T15:22:34.875Z,90.00
2023-07-08T15:23:34.857Z,84.38
2023-07-08T15:27:01.424Z,67.50
2023-07-08T15:32:58.971Z,78.75
2023-07-08T15:33:58.885Z,78.75
2023-07-08T15:34:58.853Z,73.13
2023-07-08T15:35:58.816Z,78.75
2023-07-08T15:36:58.818Z,84.38
2023-07-08T15:37:58.752Z,73.13
2023-07-08T15:40:02.222Z,67.50
2023-07-08T15:43:28.933Z,61.88
2023-07-08T15:44:28.683Z,67.50
2023-07-08T15:45:28.649Z,61.88
2023-07-08T15:47:28.629Z,61.88
2023-07-08T15:48:28.547Z,67.50
2023-07-08T15:49:28.543Z,61.88
2023-07-08T15:50:28.483Z,61.88
2023-07-08T15:51:32.282Z,61.88
2023-07-08T15:52:28.434Z,56.25
2023-07-08T15:53:28.378Z,61.88
2023-07-08T15:54:28.346Z,56.25
2023-07-08T15:55:28.310Z,50.63
2023-07-08T15:56:28.285Z,56.25
2023-07-08T15:57:28.255Z,50.63
2023-07-08T15:58:28.210Z,50.63
2023-07-08T15:59:28.173Z,50.63
2023-07-08T16:02:26.809Z,45.00
2023-07-08T16:03:25.126Z,50.63
2023-07-08T16:04:24.910Z,50.63
2023-07-08T16:05:24.854Z,50.63
2023-07-08T16:06:24.823Z,56.25
2023-07-08T16:07:24.789Z,61.88
2023-07-08T16:08:26.380Z,61.88
2023-07-08T16:09:24.722Z,61.88
2023-07-08T16:10:24.687Z,61.88
2023-07-08T16:11:24.652Z,56.25
2023-07-08T16:12:24.622Z,61.88
2023-07-08T16:13:27.413Z,61.88
2023-07-08T16:14:27.214Z,61.88
2023-07-08T16:15:24.529Z,61.88
2023-07-08T16:16:24.560Z,61.88
2023-07-08T16:17:24.471Z,61.88
2023-07-08T16:18:24.415Z,67.50
2023-07-08T16:20:24.357Z,61.88
2023-07-08T16:21:24.317Z,61.88
2023-07-08T16:22:24.279Z,67.50
2023-07-08T16:23:24.241Z,67.50
2023-07-08T16:24:24.230Z,67.50
2023-07-08T16:26:27.605Z,61.88
2023-07-08T16:27:27.557Z,61.88
2023-07-08T16:28:27.534Z,56.25
2023-07-08T16:29:27.487Z,50.63
2023-07-08T16:30:27.458Z,56.25
2023-07-08T16:31:27.433Z,61.88
2023-07-08T16:34:59.012Z,67.50
2023-07-08T16:35:58.989Z,61.88
2023-07-08T16:36:58.949Z,67.50
2023-07-08T16:37:58.910Z,67.50
2023-07-08T16:38:59.225Z,67.50
2023-07-08T16:39:58.897Z,73.13
2023-07-08T16:40:59.118Z,73.13
2023-07-08T16:41:58.786Z,73.13
2023-07-08T16:42:58.724Z,73.13
2023-07-08T16:43:58.726Z,73.13
2023-07-08T16:44:58.676Z,78.75
2023-07-08T16:45:58.636Z,78.75
2023-07-08T16:46:58.811Z,78.75
2023-07-08T16:47:58.563Z,78.75
2023-07-08T16:48:58.513Z,78.75
2023-07-08T16:49:58.544Z,78.75
2023-07-08T16:50:58.686Z,78.75
2023-07-08T16:51:58.409Z,73.13
2023-07-08T17:29:33.817Z,776.25
2023-07-08T17:30:33.763Z,911.25
2023-07-08T17:31:46.070Z,635.63
2023-07-08T17:32:33.776Z,315.00
2023-07-08T17:33:33.670Z,725.63
2023-07-08T17:34:33.628Z,140.63
2023-07-08T17:35:33.585Z,230.63
2023-07-08T17:36:33.570Z,168.75
2023-07-08T17:37:33.512Z,343.13
2023-07-08T17:38:33.480Z,534.38
2023-07-08T17:39:33.444Z,360.00
2023-07-08T17:40:33.412Z,219.38
2023-07-08T17:41:33.383Z,90.00
2023-07-08T17:42:33.350Z,67.50
2023-07-08T17:43:33.307Z,61.88
2023-07-08T17:44:33.287Z,56.25
2023-07-08T17:45:33.262Z,56.25
2023-07-08T17:46:33.239Z,50.63
2023-07-08T17:47:33.219Z,45.00
2023-07-08T17:49:33.103Z,39.38
2023-07-08T17:50:33.069Z,39.38
2023-07-08T17:51:33.033Z,39.38
2023-07-08T17:52:33.001Z,33.75
2023-07-08T17:53:32.965Z,33.75
2023-07-08T17:54:32.967Z,33.75
2023-07-08T17:55:32.907Z,33.75
2023-07-08T17:56:32.857Z,33.75
2023-07-08T17:57:32.837Z,33.75
2023-07-08T17:58:32.792Z,33.75
2023-07-08T17:59:32.758Z,33.75
2023-07-08T18:00:32.726Z,33.75
2023-07-08T18:01:32.753Z,33.75
2023-07-08T18:02:32.713Z,33.75
2023-07-08T18:03:32.659Z,33.75
2023-07-08T18:04:32.581Z,33.75
